createdAt,value
2022-08-11T00:01:55.912Z,4.00
2022-08-11T00:04:24.874Z,3.60
2022-08-11T00:06:52.532Z,3.42
2022-08-11T00:09:22.349Z,4.13
2022-08-11T00:11:51.903Z,3.30
2022-08-11T00:14:22.867Z,3.65
2022-08-11T00:16:59.268Z,3.88
2022-08-11T00:20:14.685Z,4.05
2022-08-11T00:22:22.544Z,3.75
2022-08-11T00:24:54.746Z,4.35
2022-08-11T00:27:36.968Z,3.67
2022-08-11T00:30:05.670Z,3.97
2022-08-11T00:32:32.617Z,4.18
2022-08-11T00:35:52.469Z,4.00
2022-08-11T00:37:50.684Z,4.20
2022-08-11T00:40:39.435Z,4.43
2022-08-11T00:43:45.711Z,4.60
2022-08-11T00:46:16.256Z,4.07
2022-08-11T00:49:13.575Z,4.55
2022-08-11T00:52:17.337Z,4.22
2022-08-11T00:55:27.376Z,4.72
2022-08-11T00:58:22.661Z,5.00
2022-08-11T01:01:16.962Z,4.68
2022-08-11T01:03:54.978Z,5.03
2022-08-11T01:06:32.658Z,5.93
2022-08-11T01:09:35.796Z,4.68
2022-08-11T01:12:09.381Z,4.43
2022-08-11T01:17:26.533Z,4.90
2022-08-11T01:20:47.480Z,5.00
2022-08-11T01:23:37.198Z,4.55
2022-08-11T01:26:41.267Z,4.93
2022-08-11T01:29:38.534Z,5.15
2022-08-11T01:32:42.202Z,5.43
2022-08-11T01:35:34.932Z,5.10
2022-08-11T01:38:34.688Z,4.88
2022-08-11T01:41:25.746Z,5.03
2022-08-11T01:44:36.364Z,5.88
2022-08-11T01:47:53.307Z,5.30
2022-08-11T01:50:57.074Z,5.63
2022-08-11T01:53:42.294Z,4.85
2022-08-11T01:56:33.606Z,5.10
2022-08-11T01:59:22.571Z,6.18
2022-08-11T02:02:03.780Z,5.68
2022-08-11T02:04:34.867Z,5.80
2022-08-11T02:07:10.208Z,6.22
2022-08-11T02:09:56.404Z,6.13
2022-08-11T02:12:37.754Z,5.40
2022-08-11T02:15:15.532Z,5.90
2022-08-11T02:17:54.877Z,5.45
2022-08-11T02:20:50.402Z,6.05
2022-08-11T02:24:05.496Z,6.82
2022-08-11T02:26:33.553Z,6.15
2022-08-11T02:29:05.602Z,6.20
2022-08-11T02:32:25.143Z,7.40
2022-08-11T02:35:28.341Z,6.90
2022-08-11T02:38:08.883Z,7.18
2022-08-11T02:40:43.444Z,7.30
2022-08-11T02:43:28.765Z,6.60
2022-08-11T02:46:22.018Z,6.80
2022-08-11T02:49:15.149Z,7.00
2022-08-11T02:52:05.731Z,7.60
2022-08-11T02:54:46.080Z,7.65
2022-08-11T02:57:24.183Z,6.88
2022-08-11T02:59:57.803Z,7.25
2022-08-11T03:05:17.630Z,7.43
2022-08-11T03:08:02.405Z,7.78
2022-08-11T03:10:36.983Z,6.88
2022-08-11T03:13:41.492Z,8.30
2022-08-11T03:16:35.157Z,8.07
2022-08-11T03:19:22.274Z,8.00
2022-08-11T03:22:07.324Z,7.40
2022-08-11T03:24:39.981Z,8.27
2022-08-11T03:27:27.333Z,9.15
2022-08-11T03:30:12.503Z,7.63
2022-08-11T03:33:09.650Z,8.90
2022-08-11T03:35:40.574Z,8.93
2022-08-11T03:38:11.377Z,8.05
2022-08-11T03:41:02.148Z,8.82
2022-08-11T03:43:58.360Z,8.52
2022-08-11T03:46:45.047Z,8.70
2022-08-11T03:49:31.956Z,8.82
2022-08-11T03:52:08.090Z,8.25
2022-08-11T03:54:43.625Z,8.98
2022-08-11T03:57:28.246Z,9.05
2022-08-11T04:00:16.405Z,9.63
2022-08-11T04:03:07.886Z,9.27
2022-08-11T04:06:04.331Z,9.65
2022-08-11T04:08:55.721Z,9.43
2022-08-11T04:11:40.486Z,10.20
2022-08-11T04:14:37.566Z,10.10
2022-08-11T04:17:27.008Z,9.63
2022-08-11T04:20:36.913Z,9.38
2022-08-11T04:24:35.833Z,9.38
2022-08-11T04:26:40.827Z,9.85
2022-08-11T04:29:36.451Z,10.60
2022-08-11T04:33:03.405Z,10.05
2022-08-11T04:35:51.114Z,10.55
2022-08-11T04:38:46.390Z,10.13
2022-08-11T04:41:57.402Z,10.02
2022-08-11T04:44:53.970Z,11.00
2022-08-11T04:48:07.124Z,9.38
2022-08-11T04:51:17.076Z,11.13
2022-08-11T04:54:17.861Z,11.15
2022-08-11T04:57:04.437Z,10.63
2022-08-11T05:00:03.402Z,11.88
2022-08-11T05:02:58.173Z,10.98
2022-08-11T05:05:36.087Z,11.40
2022-08-11T05:08:17.005Z,11.65
2022-08-11T05:11:07.957Z,12.85
2022-08-11T05:14:00.480Z,10.45
2022-08-11T05:16:59.311Z,11.23
2022-08-11T05:19:44.297Z,11.23
2022-08-11T05:22:31.098Z,11.10
2022-08-11T05:26:42.672Z,10.27
2022-08-11T05:28:53.976Z,10.98
2022-08-11T05:31:44.130Z,9.90
2022-08-11T05:34:31.395Z,12.63
2022-08-11T05:37:25.220Z,11.20
2022-08-11T05:40:13.852Z,9.80
2022-08-11T05:43:02.571Z,11.63
2022-08-11T05:46:02.636Z,11.30
2022-08-11T05:48:54.305Z,11.30
2022-08-11T05:51:55.073Z,11.98
2022-08-11T05:54:42.038Z,11.68
2022-08-11T05:57:08.949Z,10.07
2022-08-11T05:59:35.518Z,11.10
2022-08-11T06:02:04.874Z,11.05
2022-08-11T06:04:31.733Z,11.52
2022-08-11T06:07:10.685Z,10.38
2022-08-11T06:09:39.264Z,10.60
2022-08-11T06:12:10.604Z,9.75
2022-08-11T06:14:43.020Z,9.73
2022-08-11T06:17:10.012Z,9.57
2022-08-11T06:19:39.938Z,9.35
2022-08-11T06:22:08.795Z,8.95
2022-08-11T06:24:37.298Z,8.23
2022-08-11T06:27:12.762Z,8.55
2022-08-11T06:29:47.947Z,7.38
2022-08-11T06:32:15.646Z,6.35
2022-08-11T06:34:54.276Z,7.13
2022-08-11T06:37:24.099Z,7.50
2022-08-11T06:40:05.407Z,7.28
2022-08-11T06:42:37.420Z,6.80
2022-08-11T06:45:26.520Z,6.57
2022-08-11T06:47:53.703Z,5.80
2022-08-11T06:50:41.003Z,7.28
2022-08-11T06:53:12.623Z,6.22
2022-08-11T06:56:00.764Z,6.35
2022-08-11T06:58:50.087Z,5.75
2022-08-11T07:01:23.067Z,5.88
2022-08-11T07:03:58.327Z,5.78
2022-08-11T07:07:10.523Z,5.28
2022-08-11T07:10:14.633Z,5.18
2022-08-11T07:13:01.806Z,4.97
2022-08-11T07:16:10.438Z,4.32
2022-08-11T07:18:50.936Z,3.97
2022-08-11T07:22:02.566Z,4.07
2022-08-11T07:25:03.008Z,4.00
2022-08-11T07:28:04.015Z,3.13
2022-08-11T07:30:31.038Z,2.83
2022-08-11T07:33:01.050Z,2.70
2022-08-11T07:35:32.508Z,2.45
2022-08-11T07:38:04.820Z,2.50
2022-08-11T07:40:34.570Z,2.63
2022-08-11T07:43:01.674Z,2.33
2022-08-11T07:45:47.299Z,2.22
2022-08-11T07:48:34.002Z,2.17
2022-08-11T07:51:20.370Z,2.60
2022-08-11T07:53:58.748Z,2.10
2022-08-11T07:56:54.180Z,2.35
2022-08-11T08:00:03.452Z,2.38
2022-08-11T08:02:46.676Z,2.03
2022-08-11T08:05:33.220Z,1.90
2022-08-11T08:08:18.474Z,2.10
2022-08-11T08:11:03.625Z,1.98
2022-08-11T08:13:50.732Z,1.95
2022-08-11T08:16:36.099Z,1.98
2022-08-11T08:19:02.744Z,1.70
2022-08-11T08:21:29.325Z,1.85
2022-08-11T08:23:58.569Z,2.00
2022-08-11T08:26:48.195Z,1.70
2022-08-11T08:29:37.014Z,1.65
2022-08-11T08:32:04.134Z,1.40
2022-08-11T08:34:32.276Z,1.70
2022-08-11T08:37:00.205Z,1.50
2022-08-11T08:39:26.776Z,1.58
2022-08-11T08:41:55.388Z,1.67
2022-08-11T08:44:40.961Z,1.42
2022-08-11T08:47:12.332Z,1.30
2022-08-11T08:49:49.222Z,1.38
2022-08-11T08:52:27.897Z,1.70
2022-08-11T08:55:04.701Z,1.42
2022-08-11T08:57:39.481Z,1.38
2022-08-11T09:00:07.750Z,1.27
2022-08-11T09:02:36.649Z,1.73
2022-08-11T09:05:04.643Z,1.52
2022-08-11T09:07:39.877Z,1.10
2022-08-11T09:10:10.116Z,1.20
2022-08-11T09:12:39.834Z,1.10
2022-08-11T09:15:08.999Z,1.30
2022-08-11T09:17:46.851Z,1.50
2022-08-11T09:20:15.519Z,1.20
2022-08-11T09:26:11.536Z,1.80
2022-08-11T09:28:38.195Z,1.88
2022-08-11T09:31:06.280Z,2.60
2022-08-11T09:33:33.351Z,2.20
2022-08-11T09:36:20.222Z,2.13
2022-08-11T09:39:05.522Z,1.75
2022-08-11T09:42:01.459Z,2.00
2022-08-11T09:44:38.577Z,1.65
2022-08-11T09:47:14.992Z,1.50
2022-08-11T09:49:45.182Z,1.60
2022-08-11T09:52:14.266Z,1.60
2022-08-11T09:54:42.105Z,1.52
2022-08-11T09:57:33.277Z,1.40
2022-08-11T10:00:09.485Z,1.83
2022-08-11T10:02:46.305Z,1.80
2022-08-11T10:05:34.522Z,1.40
2022-08-11T10:08:01.370Z,1.70
2022-08-11T10:10:27.993Z,1.80
2022-08-11T10:12:59.994Z,1.20
2022-08-11T10:15:39.578Z,1.58
2022-08-11T10:18:53.374Z,1.48
2022-08-11T10:21:35.922Z,1.30
2022-08-11T10:24:22.040Z,1.40
2022-08-11T10:26:55.599Z,1.67
2022-08-11T10:29:44.482Z,1.73
2022-08-11T10:32:58.378Z,1.55
2022-08-11T10:35:28.346Z,1.77
2022-08-11T10:38:07.442Z,1.50
2022-08-11T10:40:39.165Z,1.50
2022-08-11T10:43:10.297Z,1.35
2022-08-11T10:45:56.309Z,1.23
2022-08-11T10:48:26.107Z,1.80
2022-08-11T10:51:12.217Z,1.70
2022-08-11T10:54:02.354Z,1.40
2022-08-11T10:56:53.935Z,1.58
2022-08-11T10:59:20.757Z,1.67
2022-08-11T11:01:47.343Z,1.20
2022-08-11T11:04:18.488Z,2.13
2022-08-11T11:06:58.208Z,1.20
2022-08-11T11:09:43.971Z,1.20
2022-08-11T11:12:53.454Z,1.27
2022-08-11T11:15:41.008Z,1.20
2022-08-11T11:18:24.288Z,1.30
2022-08-11T11:20:59.103Z,1.30
2022-08-11T11:23:32.038Z,1.40
2022-08-11T11:28:57.567Z,1.40
2022-08-11T11:31:26.951Z,1.27
2022-08-11T11:34:13.111Z,1.30
2022-08-11T11:36:42.668Z,1.10
2022-08-11T11:39:09.892Z,1.10
2022-08-11T11:41:36.558Z,1.27
2022-08-11T11:44:03.531Z,1.08
2022-08-11T11:46:30.765Z,1.30
2022-08-11T11:48:58.974Z,1.50
2022-08-11T11:51:26.377Z,1.20
2022-08-11T11:53:53.559Z,1.27
2022-08-11T11:56:22.280Z,1.30
2022-08-11T11:59:07.898Z,1.23
2022-08-11T12:01:38.056Z,1.52
2022-08-11T12:04:08.023Z,1.60
2022-08-11T12:06:35.043Z,1.20
2022-08-11T12:09:04.742Z,1.30
2022-08-11T12:11:50.495Z,1.30
2022-08-11T12:14:19.754Z,1.13
2022-08-11T12:16:47.994Z,1.40
2022-08-11T12:19:18.115Z,1.05
2022-08-11T12:22:03.464Z,0.90
2022-08-11T12:24:50.084Z,1.08
2022-08-11T12:27:25.445Z,1.05
2022-08-11T12:30:08.422Z,1.33
2022-08-11T12:32:38.177Z,0.95
2022-08-11T12:35:05.850Z,1.10
2022-08-11T12:37:39.526Z,1.17
2022-08-11T12:41:11.753Z,1.23
2022-08-11T12:43:46.591Z,1.20
2022-08-11T12:46:27.788Z,1.10
2022-08-11T12:49:17.591Z,1.20
2022-08-11T12:52:12.225Z,1.00
2022-08-11T12:54:40.680Z,0.90
2022-08-11T12:57:45.592Z,1.17
2022-08-11T13:00:31.579Z,1.10
2022-08-11T13:03:17.539Z,1.20
2022-08-11T13:05:46.502Z,1.30
2022-08-11T13:08:15.069Z,1.23
2022-08-11T13:11:02.087Z,1.30
2022-08-11T13:13:55.878Z,1.10
2022-08-11T13:16:16.141Z,1.00
2022-08-11T13:18:43.024Z,1.23
2022-08-11T13:21:20.065Z,1.67
2022-08-11T13:24:01.886Z,1.00
2022-08-11T13:26:43.122Z,1.87
2022-08-11T13:29:17.474Z,1.20
2022-08-11T13:31:45.089Z,1.33
2022-08-11T13:34:12.212Z,1.10
2022-08-11T13:36:39.053Z,0.98
2022-08-11T13:39:05.697Z,1.10
2022-08-11T13:41:39.094Z,1.25
2022-08-11T13:44:07.361Z,1.13
2022-08-11T13:46:34.166Z,1.15
2022-08-11T13:49:02.253Z,1.35
2022-08-11T13:51:35.409Z,1.23
2022-08-11T13:54:25.939Z,1.20
2022-08-11T13:56:55.391Z,1.20
2022-08-11T13:59:23.137Z,1.40
2022-08-11T14:02:19.221Z,1.00
2022-08-11T14:04:44.034Z,1.20
2022-08-11T14:07:11.842Z,1.13
2022-08-11T14:09:40.916Z,1.10
2022-08-11T14:12:31.561Z,1.10
2022-08-11T14:15:08.133Z,1.08
2022-08-11T14:17:48.849Z,1.00
2022-08-11T14:20:38.352Z,1.35
2022-08-11T14:23:04.802Z,1.20
2022-08-11T14:26:00.136Z,1.20
2022-08-11T14:28:30.904Z,1.30
2022-08-11T14:31:02.205Z,1.27
2022-08-11T14:33:58.773Z,1.50
2022-08-11T14:36:15.947Z,1.10
2022-08-11T14:38:42.698Z,1.10
2022-08-11T14:41:28.342Z,1.63
2022-08-11T14:44:15.104Z,1.10
2022-08-11T14:47:01.909Z,1.30
2022-08-11T14:49:29.602Z,1.30
2022-08-11T14:51:57.722Z,1.45
2022-08-11T14:54:49.537Z,1.40
2022-08-11T14:57:17.023Z,1.23
2022-08-11T14:59:45.494Z,1.30
2022-08-11T15:02:30.544Z,1.50
2022-08-11T15:04:58.810Z,1.52
2022-08-11T15:07:29.686Z,1.58
2022-08-11T15:10:14.023Z,1.17
2022-08-11T15:12:42.404Z,1.00
2022-08-11T15:15:28.926Z,1.20
2022-08-11T15:17:57.806Z,1.25
2022-08-11T15:20:44.851Z,1.27
2022-08-11T15:23:30.391Z,1.20
2022-08-11T15:26:13.612Z,1.40
2022-08-11T15:29:03.131Z,1.50
2022-08-11T15:31:42.177Z,1.20
2022-08-11T15:34:37.230Z,1.10
2022-08-11T15:37:26.503Z,1.20
2022-08-11T15:40:36.677Z,1.10
2022-08-11T15:43:37.368Z,1.00
2022-08-11T15:46:11.036Z,1.00
2022-08-11T15:50:10.509Z,2.30
2022-08-11T15:52:35.071Z,2.40
2022-08-11T15:55:08.694Z,1.67
2022-08-11T15:57:55.794Z,1.25
2022-08-11T16:00:41.171Z,1.35
2022-08-11T16:04:06.046Z,1.02
2022-08-11T16:06:13.622Z,1.15
2022-08-11T16:08:41.351Z,1.00
2022-08-11T16:11:08.794Z,1.27
2022-08-11T16:13:37.079Z,1.10
2022-08-11T16:16:17.032Z,1.10
2022-08-11T16:18:52.037Z,0.98
2022-08-11T16:21:34.161Z,1.10
2022-08-11T16:24:06.926Z,1.27
2022-08-11T16:27:07.406Z,1.00
2022-08-11T16:29:25.161Z,1.15
2022-08-11T16:32:10.296Z,1.10
2022-08-11T16:34:56.908Z,1.38
2022-08-11T16:37:42.836Z,1.00
2022-08-11T16:40:10.270Z,1.10
2022-08-11T16:43:08.523Z,1.30
2022-08-11T16:45:58.635Z,1.15
2022-08-11T16:48:36.060Z,1.10
2022-08-11T16:51:06.416Z,1.30
2022-08-11T16:53:54.928Z,1.10
2022-08-11T16:56:24.127Z,1.20
2022-08-11T16:59:14.618Z,1.30
2022-08-11T17:01:44.647Z,1.08
2022-08-11T17:04:38.300Z,1.10
2022-08-11T17:07:41.943Z,1.20
2022-08-11T17:10:51.959Z,1.50
2022-08-11T17:13:26.280Z,1.35
2022-08-11T17:16:09.928Z,1.50
2022-08-11T17:18:57.240Z,1.33
2022-08-11T17:21:33.881Z,1.30
2022-08-11T17:24:08.424Z,1.30
2022-08-11T17:26:58.981Z,1.30
2022-08-11T17:29:31.482Z,1.20
2022-08-11T17:32:19.274Z,1.52
2022-08-11T17:35:05.450Z,1.30
2022-08-11T17:37:33.290Z,1.40
2022-08-11T17:40:06.074Z,1.70
2022-08-11T17:42:51.608Z,1.15
2022-08-11T17:45:38.753Z,1.40
2022-08-11T17:48:24.410Z,1.30
2022-08-11T17:50:52.558Z,1.40
2022-08-11T17:53:38.331Z,1.40
2022-08-11T17:56:23.861Z,1.50
2022-08-11T17:59:11.058Z,1.80
2022-08-11T18:01:38.979Z,1.50
2022-08-11T18:04:10.137Z,1.80
2022-08-11T18:06:37.671Z,1.45
2022-08-11T18:09:27.170Z,1.70
2022-08-11T18:12:13.413Z,1.50
2022-08-11T18:15:02.259Z,1.70
2022-08-11T18:17:47.469Z,1.48
2022-08-11T18:20:32.366Z,1.50
2022-08-11T18:23:20.230Z,1.70
2022-08-11T18:26:06.455Z,1.50
2022-08-11T18:29:01.480Z,1.55
2022-08-11T18:31:51.041Z,1.55
2022-08-11T18:34:40.078Z,2.00
2022-08-11T18:37:30.602Z,1.60
2022-08-11T18:40:19.458Z,1.67
2022-08-11T18:43:06.621Z,1.77
2022-08-11T18:46:06.193Z,1.88
2022-08-11T18:48:54.663Z,1.80
2022-08-11T18:51:39.778Z,2.15
2022-08-11T18:54:27.975Z,1.63
2022-08-11T18:57:15.135Z,2.10
2022-08-11T19:00:01.340Z,1.60
2022-08-11T19:02:48.562Z,1.67
2022-08-11T19:06:32.116Z,1.90
2022-08-11T19:08:42.482Z,1.95
2022-08-11T19:11:29.766Z,1.50
2022-08-11T19:14:15.314Z,1.73
2022-08-11T19:17:01.575Z,1.60
2022-08-11T19:19:47.947Z,2.00
2022-08-11T19:22:34.781Z,2.03
2022-08-11T19:25:25.286Z,1.85
2022-08-11T19:28:12.399Z,1.88
2022-08-11T19:30:58.515Z,1.67
2022-08-11T19:33:59.954Z,1.73
2022-08-11T19:36:48.705Z,1.88
2022-08-11T19:39:33.929Z,2.22
2022-08-11T19:42:19.135Z,1.80
2022-08-11T19:45:04.865Z,2.00
2022-08-11T19:47:59.109Z,1.88
2022-08-11T19:50:57.138Z,1.80
2022-08-11T19:53:44.078Z,1.55
2022-08-11T19:56:29.688Z,2.20
2022-08-11T19:59:15.378Z,2.10
2022-08-11T20:02:12.451Z,1.85
2022-08-11T20:05:00.056Z,1.70
2022-08-11T20:07:46.312Z,1.58
2022-08-11T20:10:33.053Z,1.55
2022-08-11T20:13:21.600Z,1.73
2022-08-11T20:16:07.035Z,1.70
2022-08-11T20:18:52.757Z,1.50
2022-08-11T20:21:38.308Z,1.90
2022-08-11T20:24:23.509Z,1.90
2022-08-11T20:27:24.335Z,1.80
2022-08-11T20:30:11.643Z,1.90
2022-08-11T20:32:58.166Z,1.60
2022-08-11T20:35:43.865Z,2.10
2022-08-11T20:38:30.049Z,1.80
2022-08-11T20:41:16.311Z,2.08
2022-08-11T20:44:05.876Z,2.17
2022-08-11T20:46:57.962Z,2.00
2022-08-11T20:49:53.677Z,1.90
2022-08-11T20:52:47.416Z,2.10
2022-08-11T20:55:51.470Z,2.10
2022-08-11T20:59:11.530Z,2.08
2022-08-11T21:01:44.611Z,2.00
2022-08-11T21:04:30.584Z,2.45
2022-08-11T21:07:28.599Z,2.35
2022-08-11T21:10:23.451Z,2.20
2022-08-11T21:13:26.260Z,2.10
2022-08-11T21:16:25.368Z,2.13
2022-08-11T21:19:59.853Z,2.00
2022-08-11T21:23:23.715Z,2.17
2022-08-11T21:26:14.817Z,2.13
2022-08-11T21:29:01.092Z,2.33
2022-08-11T21:31:48.812Z,2.10
2022-08-11T21:34:36.451Z,2.25
2022-08-11T21:37:23.334Z,2.10
2022-08-11T21:40:09.994Z,2.60
2022-08-11T21:42:59.585Z,2.15
2022-08-11T21:45:45.715Z,2.50
2022-08-11T21:48:31.415Z,2.17
2022-08-11T21:51:17.078Z,2.05
2022-08-11T21:54:02.260Z,2.40
2022-08-11T21:56:49.966Z,2.30
2022-08-11T21:59:40.329Z,2.05
2022-08-11T22:02:25.418Z,2.45
2022-08-11T22:05:10.586Z,2.47
2022-08-11T22:07:57.177Z,2.72
2022-08-11T22:10:43.151Z,2.05
2022-08-11T22:13:31.796Z,2.30
2022-08-11T22:16:18.547Z,2.33
2022-08-11T22:19:05.273Z,1.90
2022-08-11T22:22:02.648Z,2.28
2022-08-11T22:24:48.803Z,2.30
2022-08-11T22:27:33.891Z,3.13
2022-08-11T22:30:19.013Z,2.45
2022-08-11T22:33:04.281Z,2.40
2022-08-11T22:35:49.919Z,2.35
2022-08-11T22:38:36.124Z,2.30
2022-08-11T22:41:21.393Z,2.40
2022-08-11T22:44:06.492Z,2.70
2022-08-11T22:46:52.782Z,2.28
2022-08-11T22:49:42.436Z,2.53
2022-08-11T22:52:43.508Z,2.25
2022-08-11T22:55:29.306Z,2.50
2022-08-11T22:58:15.017Z,2.55
2022-08-11T23:01:00.306Z,2.78
2022-08-11T23:03:45.577Z,2.47
2022-08-11T23:06:30.982Z,2.60
2022-08-11T23:09:16.048Z,2.88
2022-08-11T23:12:06.607Z,2.63
2022-08-11T23:14:53.734Z,2.55
2022-08-11T23:17:39.258Z,2.97
2022-08-11T23:20:29.798Z,2.63
2022-08-11T23:23:20.016Z,3.10
2022-08-11T23:26:05.277Z,2.65
2022-08-11T23:28:51.446Z,2.90
2022-08-11T23:31:44.411Z,2.88
2022-08-11T23:35:36.940Z,3.00
2022-08-11T23:38:03.231Z,3.22
2022-08-11T23:40:48.487Z,2.65
2022-08-11T23:43:40.759Z,3.10
2022-08-11T23:46:25.867Z,2.70
2022-08-11T23:49:21.348Z,2.75
2022-08-11T23:52:07.414Z,2.80
2022-08-11T23:54:52.802Z,2.83
2022-08-11T23:57:47.604Z,2.70
